sensor_id;sensor_type;location;lat;lon;timestamp;P1;durP1;ratioP1;P2;durP2;ratioP2
6149;SDS011;3106;42.670;23.318;2023-02-01T00:00:55;10.13;;;5.80;;
6149;SDS011;3106;42.670;23.318;2023-02-01T00:03:25;10.10;;;5.97;;
6149;SDS011;3106;42.670;23.318;2023-02-01T00:05:57;11.50;;;5.57;;
6149;SDS011;3106;42.670;23.318;2023-02-01T00:08:27;10.87;;;6.00;;
6149;SDS011;3106;42.670;23.318;2023-02-01T00:10:57;9.53;;;6.13;;
6149;SDS011;3106;42.670;23.318;2023-02-01T00:13:27;8.83;;;5.37;;
6149;SDS011;3106;42.670;23.318;2023-02-01T00:15:55;11.87;;;5.10;;
6149;SDS011;3106;42.670;23.318;2023-02-01T00:18:28;7.40;;;4.87;;
6149;SDS011;3106;42.670;23.318;2023-02-01T00:20:54;8.97;;;5.77;;
6149;SDS011;3106;42.670;23.318;2023-02-01T00:23:23;12.97;;;5.47;;
6149;SDS011;3106;42.670;23.318;2023-02-01T00:25:50;11.00;;;5.00;;
6149;SDS011;3106;42.670;23.318;2023-02-01T00:28:17;11.77;;;5.33;;
6149;SDS011;3106;42.670;23.318;2023-02-01T00:30:44;11.77;;;5.40;;
6149;SDS011;3106;42.670;23.318;2023-02-01T00:33:11;14.73;;;6.43;;
6149;SDS011;3106;42.670;23.318;2023-02-01T00:35:37;8.10;;;5.07;;
6149;SDS011;3106;42.670;23.318;2023-02-01T00:40:41;9.37;;;5.23;;
6149;SDS011;3106;42.670;23.318;2023-02-01T00:43:08;10.30;;;5.30;;
6149;SDS011;3106;42.670;23.318;2023-02-01T00:45:35;9.83;;;4.50;;
6149;SDS011;3106;42.670;23.318;2023-02-01T00:48:02;9.70;;;5.30;;
6149;SDS011;3106;42.670;23.318;2023-02-01T00:50:29;5.40;;;3.93;;
6149;SDS011;3106;42.670;23.318;2023-02-01T00:52:56;10.23;;;5.20;;
6149;SDS011;3106;42.670;23.318;2023-02-01T00:55:22;7.70;;;4.33;;
6149;SDS011;3106;42.670;23.318;2023-02-01T00:57:51;6.37;;;3.60;;
6149;SDS011;3106;42.670;23.318;2023-02-01T01:00:18;6.87;;;3.87;;
6149;SDS011;3106;42.670;23.318;2023-02-01T01:02:45;6.97;;;4.00;;
6149;SDS011;3106;42.670;23.318;2023-02-01T01:05:11;6.43;;;4.30;;
6149;SDS011;3106;42.670;23.318;2023-02-01T01:07:38;6.60;;;4.00;;
6149;SDS011;3106;42.670;23.318;2023-02-01T01:10:06;6.10;;;3.83;;
6149;SDS011;3106;42.670;23.318;2023-02-01T01:12:34;5.57;;;3.77;;
6149;SDS011;3106;42.670;23.318;2023-02-01T01:15:07;8.20;;;4.30;;
6149;SDS011;3106;42.670;23.318;2023-02-01T01:17:34;6.97;;;4.53;;
6149;SDS011;3106;42.670;23.318;2023-02-01T01:20:01;6.30;;;3.77;;
6149;SDS011;3106;42.670;23.318;2023-02-01T01:22:28;7.20;;;4.03;;
6149;SDS011;3106;42.670;23.318;2023-02-01T01:24:55;8.90;;;4.73;;
6149;SDS011;3106;42.670;23.318;2023-02-01T01:27:22;8.70;;;4.33;;
6149;SDS011;3106;42.670;23.318;2023-02-01T01:29:50;6.87;;;3.90;;
6149;SDS011;3106;42.670;23.318;2023-02-01T01:32:19;5.67;;;3.80;;
6149;SDS011;3106;42.670;23.318;2023-02-01T01:34:47;7.90;;;3.57;;
6149;SDS011;3106;42.670;23.318;2023-02-01T01:37:15;7.50;;;3.70;;
6149;SDS011;3106;42.670;23.318;2023-02-01T01:39:45;5.17;;;3.27;;
6149;SDS011;3106;42.670;23.318;2023-02-01T01:42:12;5.50;;;3.70;;
6149;SDS011;3106;42.670;23.318;2023-02-01T01:47:34;8.33;;;3.43;;
6149;SDS011;3106;42.670;23.318;2023-02-01T01:50:05;6.40;;;3.83;;
6149;SDS011;3106;42.670;23.318;2023-02-01T01:52:35;6.13;;;4.03;;
6149;SDS011;3106;42.670;23.318;2023-02-01T01:55:06;5.77;;;3.43;;
6149;SDS011;3106;42.670;23.318;2023-02-01T01:57:39;15.93;;;4.40;;
6149;SDS011;3106;42.670;23.318;2023-02-01T02:00:09;5.43;;;3.30;;
6149;SDS011;3106;42.670;23.318;2023-02-01T02:02:44;8.37;;;4.10;;
6149;SDS011;3106;42.670;23.318;2023-02-01T02:05:14;8.03;;;3.97;;
6149;SDS011;3106;42.670;23.318;2023-02-01T02:07:44;6.37;;;3.77;;
6149;SDS011;3106;42.670;23.318;2023-02-01T02:10:17;8.23;;;4.27;;
6149;SDS011;3106;42.670;23.318;2023-02-01T02:12:44;6.13;;;4.03;;
6149;SDS011;3106;42.670;23.318;2023-02-01T02:15:14;7.00;;;3.80;;
6149;SDS011;3106;42.670;23.318;2023-02-01T02:17:46;7.00;;;3.73;;
6149;SDS011;3106;42.670;23.318;2023-02-01T02:20:30;5.43;;;3.57;;
6149;SDS011;3106;42.670;23.318;2023-02-01T02:23:44;5.60;;;3.37;;
6149;SDS011;3106;42.670;23.318;2023-02-01T02:32:59;5.23;;;3.27;;
6149;SDS011;3106;42.670;23.318;2023-02-01T02:35:56;7.40;;;3.33;;
6149;SDS011;3106;42.670;23.318;2023-02-01T02:38:30;5.90;;;3.70;;
6149;SDS011;3106;42.670;23.318;2023-02-01T02:41:08;5.70;;;3.70;;
6149;SDS011;3106;42.670;23.318;2023-02-01T02:44:05;5.13;;;3.27;;
6149;SDS011;3106;42.670;23.318;2023-02-01T02:46:57;11.03;;;3.50;;
6149;SDS011;3106;42.670;23.318;2023-02-01T02:49:49;4.53;;;3.30;;
6149;SDS011;3106;42.670;23.318;2023-02-01T02:52:36;7.23;;;3.83;;
6149;SDS011;3106;42.670;23.318;2023-02-01T02:55:29;8.60;;;3.80;;
6149;SDS011;3106;42.670;23.318;2023-02-01T02:57:58;7.23;;;3.30;;
6149;SDS011;3106;42.670;23.318;2023-02-01T03:00:43;9.40;;;3.83;;
6149;SDS011;3106;42.670;23.318;2023-02-01T03:03:28;7.77;;;3.27;;
6149;SDS011;3106;42.670;23.318;2023-02-01T03:06:13;4.97;;;2.50;;
6149;SDS011;3106;42.670;23.318;2023-02-01T03:08:48;6.90;;;2.87;;
6149;SDS011;3106;42.670;23.318;2023-02-01T03:11:19;3.83;;;2.73;;
6149;SDS011;3106;42.670;23.318;2023-02-01T03:13:47;3.83;;;2.83;;
6149;SDS011;3106;42.670;23.318;2023-02-01T03:16:18;3.87;;;3.20;;
6149;SDS011;3106;42.670;23.318;2023-02-01T03:18:52;2.93;;;2.53;;
6149;SDS011;3106;42.670;23.318;2023-02-01T03:21:23;5.37;;;3.10;;
6149;SDS011;3106;42.670;23.318;2023-02-01T03:23:55;8.53;;;2.70;;
6149;SDS011;3106;42.670;23.318;2023-02-01T03:26:26;4.33;;;2.90;;
6149;SDS011;3106;42.670;23.318;2023-02-01T03:29:00;7.63;;;3.10;;
6149;SDS011;3106;42.670;23.318;2023-02-01T03:31:32;7.83;;;3.70;;
6149;SDS011;3106;42.670;23.318;2023-02-01T03:34:02;3.40;;;2.27;;
6149;SDS011;3106;42.670;23.318;2023-02-01T03:36:31;13.83;;;3.13;;
6149;SDS011;3106;42.670;23.318;2023-02-01T03:39:06;8.57;;;2.60;;
6149;SDS011;3106;42.670;23.318;2023-02-01T03:41:46;4.37;;;2.60;;
6149;SDS011;3106;42.670;23.318;2023-02-01T03:44:20;6.50;;;2.93;;
6149;SDS011;3106;42.670;23.318;2023-02-01T03:46:51;7.60;;;2.73;;
6149;SDS011;3106;42.670;23.318;2023-02-01T03:49:25;2.30;;;2.10;;
6149;SDS011;3106;42.670;23.318;2023-02-01T03:51:59;7.13;;;3.20;;
6149;SDS011;3106;42.670;23.318;2023-02-01T03:54:29;3.67;;;2.50;;
6149;SDS011;3106;42.670;23.318;2023-02-01T03:56:59;16.83;;;2.43;;
6149;SDS011;3106;42.670;23.318;2023-02-01T03:59:31;4.53;;;2.60;;
6149;SDS011;3106;42.670;23.318;2023-02-01T04:02:01;4.73;;;2.50;;
6149;SDS011;3106;42.670;23.318;2023-02-01T04:04:28;5.10;;;2.83;;
6149;SDS011;3106;42.670;23.318;2023-02-01T04:06:54;4.63;;;2.90;;
6149;SDS011;3106;42.670;23.318;2023-02-01T04:09:24;8.10;;;2.97;;
6149;SDS011;3106;42.670;23.318;2023-02-01T04:11:52;4.83;;;2.83;;
6149;SDS011;3106;42.670;23.318;2023-02-01T04:14:19;5.10;;;3.03;;
6149;SDS011;3106;42.670;23.318;2023-02-01T04:16:46;9.20;;;3.20;;
6149;SDS011;3106;42.670;23.318;2023-02-01T04:19:13;5.53;;;3.40;;
6149;SDS011;3106;42.670;23.318;2023-02-01T04:21:40;7.90;;;2.70;;
6149;SDS011;3106;42.670;23.318;2023-02-01T04:24:08;7.30;;;3.30;;
6149;SDS011;3106;42.670;23.318;2023-02-01T04:26:35;6.70;;;3.53;;
6149;SDS011;3106;42.670;23.318;2023-02-01T04:29:04;4.60;;;3.17;;
6149;SDS011;3106;42.670;23.318;2023-02-01T04:31:31;4.00;;;2.97;;
6149;SDS011;3106;42.670;23.318;2023-02-01T04:33:58;6.53;;;3.00;;
6149;SDS011;3106;42.670;23.318;2023-02-01T04:36:24;10.20;;;4.17;;
6149;SDS011;3106;42.670;23.318;2023-02-01T04:38:51;10.53;;;3.77;;
6149;SDS011;3106;42.670;23.318;2023-02-01T04:41:18;6.80;;;3.67;;
6149;SDS011;3106;42.670;23.318;2023-02-01T04:43:48;6.27;;;3.43;;
6149;SDS011;3106;42.670;23.318;2023-02-01T04:46:19;6.30;;;3.70;;
6149;SDS011;3106;42.670;23.318;2023-02-01T04:48:46;6.53;;;3.93;;
6149;SDS011;3106;42.670;23.318;2023-02-01T04:51:13;6.37;;;3.77;;
6149;SDS011;3106;42.670;23.318;2023-02-01T04:53:40;6.03;;;3.60;;
6149;SDS011;3106;42.670;23.318;2023-02-01T04:56:07;14.47;;;3.90;;
6149;SDS011;3106;42.670;23.318;2023-02-01T04:58:34;6.40;;;3.37;;
6149;SDS011;3106;42.670;23.318;2023-02-01T05:01:02;12.53;;;3.90;;
6149;SDS011;3106;42.670;23.318;2023-02-01T05:03:31;7.50;;;3.83;;
6149;SDS011;3106;42.670;23.318;2023-02-01T05:05:58;7.37;;;4.40;;
6149;SDS011;3106;42.670;23.318;2023-02-01T05:08:25;11.50;;;4.40;;
6149;SDS011;3106;42.670;23.318;2023-02-01T05:10:53;7.60;;;4.30;;
6149;SDS011;3106;42.670;23.318;2023-02-01T05:13:20;9.50;;;4.20;;
6149;SDS011;3106;42.670;23.318;2023-02-01T05:16:05;7.60;;;4.60;;
6149;SDS011;3106;42.670;23.318;2023-02-01T05:18:34;7.80;;;4.00;;
6149;SDS011;3106;42.670;23.318;2023-02-01T05:21:03;7.60;;;4.27;;
6149;SDS011;3106;42.670;23.318;2023-02-01T05:23:30;8.50;;;4.43;;
6149;SDS011;3106;42.670;23.318;2023-02-01T05:26:00;5.80;;;4.07;;
6149;SDS011;3106;42.670;23.318;2023-02-01T05:28:28;9.57;;;4.50;;
6149;SDS011;3106;42.670;23.318;2023-02-01T05:30:56;14.80;;;3.90;;
6149;SDS011;3106;42.670;23.318;2023-02-01T05:33:23;9.20;;;4.07;;
6149;SDS011;3106;42.670;23.318;2023-02-01T05:35:51;17.23;;;4.10;;
6149;SDS011;3106;42.670;23.318;2023-02-01T05:38:19;7.60;;;4.13;;
6149;SDS011;3106;42.670;23.318;2023-02-01T05:40:46;10.53;;;4.70;;
6149;SDS011;3106;42.670;23.318;2023-02-01T05:43:14;7.20;;;4.10;;
6149;SDS011;3106;42.670;23.318;2023-02-01T05:45:42;6.83;;;5.07;;
6149;SDS011;3106;42.670;23.318;2023-02-01T05:48:08;6.07;;;4.17;;
6149;SDS011;3106;42.670;23.318;2023-02-01T05:50:35;9.07;;;5.30;;
6149;SDS011;3106;42.670;23.318;2023-02-01T05:53:03;8.20;;;3.73;;
6149;SDS011;3106;42.670;23.318;2023-02-01T05:55:31;9.60;;;4.97;;
6149;SDS011;3106;42.670;23.318;2023-02-01T05:57:58;9.80;;;4.23;;
6149;SDS011;3106;42.670;23.318;2023-02-01T06:00:26;12.30;;;4.80;;
6149;SDS011;3106;42.670;23.318;2023-02-01T06:02:52;8.57;;;4.50;;
6149;SDS011;3106;42.670;23.318;2023-02-01T06:05:19;5.67;;;4.03;;
6149;SDS011;3106;42.670;23.318;2023-02-01T06:07:47;13.40;;;4.00;;
6149;SDS011;3106;42.670;23.318;2023-02-01T06:10:17;5.30;;;3.60;;
6149;SDS011;3106;42.670;23.318;2023-02-01T06:12:44;5.60;;;3.70;;
6149;SDS011;3106;42.670;23.318;2023-02-01T06:15:11;4.20;;;2.87;;
6149;SDS011;3106;42.670;23.318;2023-02-01T06:17:40;5.80;;;3.70;;
6149;SDS011;3106;42.670;23.318;2023-02-01T06:20:09;8.90;;;3.30;;
6149;SDS011;3106;42.670;23.318;2023-02-01T06:22:37;13.20;;;3.90;;
6149;SDS011;3106;42.670;23.318;2023-02-01T06:25:05;6.13;;;3.20;;
6149;SDS011;3106;42.670;23.318;2023-02-01T06:27:38;9.60;;;4.03;;
6149;SDS011;3106;42.670;23.318;2023-02-01T06:30:05;10.67;;;3.33;;
6149;SDS011;3106;42.670;23.318;2023-02-01T06:32:33;9.37;;;3.40;;
6149;SDS011;3106;42.670;23.318;2023-02-01T06:35:00;8.33;;;3.23;;
6149;SDS011;3106;42.670;23.318;2023-02-01T06:37:27;7.93;;;3.70;;
6149;SDS011;3106;42.670;23.318;2023-02-01T06:39:55;19.63;;;3.50;;
6149;SDS011;3106;42.670;23.318;2023-02-01T06:42:21;8.80;;;4.37;;
6149;SDS011;3106;42.670;23.318;2023-02-01T06:44:56;9.20;;;4.13;;
6149;SDS011;3106;42.670;23.318;2023-02-01T06:47:51;7.40;;;4.60;;
6149;SDS011;3106;42.670;23.318;2023-02-01T06:50:26;5.40;;;3.77;;
6149;SDS011;3106;42.670;23.318;2023-02-01T06:52:53;15.13;;;4.97;;
6149;SDS011;3106;42.670;23.318;2023-02-01T06:55:21;9.03;;;4.00;;
6149;SDS011;3106;42.670;23.318;2023-02-01T06:57:52;5.33;;;3.30;;
6149;SDS011;3106;42.670;23.318;2023-02-01T07:00:21;6.43;;;3.90;;
6149;SDS011;3106;42.670;23.318;2023-02-01T07:02:49;7.10;;;3.73;;
6149;SDS011;3106;42.670;23.318;2023-02-01T07:05:16;12.17;;;4.40;;
6149;SDS011;3106;42.670;23.318;2023-02-01T07:07:43;7.83;;;3.47;;
6149;SDS011;3106;42.670;23.318;2023-02-01T07:10:11;10.03;;;3.40;;
6149;SDS011;3106;42.670;23.318;2023-02-01T07:12:38;5.53;;;3.50;;
6149;SDS011;3106;42.670;23.318;2023-02-01T07:15:05;6.27;;;3.60;;
6149;SDS011;3106;42.670;23.318;2023-02-01T07:17:35;6.03;;;3.17;;
6149;SDS011;3106;42.670;23.318;2023-02-01T07:20:02;9.40;;;3.50;;
6149;SDS011;3106;42.670;23.318;2023-02-01T07:22:30;12.77;;;3.70;;
6149;SDS011;3106;42.670;23.318;2023-02-01T07:24:57;8.33;;;3.73;;
6149;SDS011;3106;42.670;23.318;2023-02-01T07:27:24;8.80;;;5.10;;
6149;SDS011;3106;42.670;23.318;2023-02-01T07:29:51;10.33;;;3.63;;
6149;SDS011;3106;42.670;23.318;2023-02-01T07:32:18;8.90;;;3.80;;
6149;SDS011;3106;42.670;23.318;2023-02-01T07:34:46;7.37;;;3.10;;
6149;SDS011;3106;42.670;23.318;2023-02-01T07:37:13;5.43;;;2.90;;
6149;SDS011;3106;42.670;23.318;2023-02-01T07:39:40;7.40;;;3.80;;
6149;SDS011;3106;42.670;23.318;2023-02-01T07:42:07;9.00;;;4.20;;
6149;SDS011;3106;42.670;23.318;2023-02-01T07:44:34;10.93;;;5.20;;
6149;SDS011;3106;42.670;23.318;2023-02-01T07:47:01;10.03;;;3.63;;
6149;SDS011;3106;42.670;23.318;2023-02-01T07:49:28;7.30;;;3.43;;
6149;SDS011;3106;42.670;23.318;2023-02-01T07:51:56;5.40;;;2.83;;
6149;SDS011;3106;42.670;23.318;2023-02-01T07:54:23;13.40;;;3.80;;
6149;SDS011;3106;42.670;23.318;2023-02-01T07:56:50;5.40;;;3.13;;
6149;SDS011;3106;42.670;23.318;2023-02-01T07:59:17;4.70;;;3.37;;
6149;SDS011;3106;42.670;23.318;2023-02-01T08:01:44;7.00;;;3.47;;
6149;SDS011;3106;42.670;23.318;2023-02-01T08:04:30;5.00;;;3.20;;
6149;SDS011;3106;42.670;23.318;2023-02-01T08:06:58;5.43;;;3.10;;
6149;SDS011;3106;42.670;23.318;2023-02-01T08:09:25;6.93;;;3.20;;
6149;SDS011;3106;42.670;23.318;2023-02-01T08:11:52;9.13;;;3.63;;
6149;SDS011;3106;42.670;23.318;2023-02-01T08:14:19;7.30;;;3.17;;
6149;SDS011;3106;42.670;23.318;2023-02-01T08:16:46;5.30;;;3.30;;
6149;SDS011;3106;42.670;23.318;2023-02-01T08:19:13;6.83;;;2.50;;
6149;SDS011;3106;42.670;23.318;2023-02-01T08:21:43;7.90;;;3.30;;
6149;SDS011;3106;42.670;23.318;2023-02-01T08:24:19;10.13;;;3.50;;
6149;SDS011;3106;42.670;23.318;2023-02-01T08:26:48;4.70;;;3.03;;
6149;SDS011;3106;42.670;23.318;2023-02-01T08:29:26;6.00;;;3.37;;
6149;SDS011;3106;42.670;23.318;2023-02-01T08:31:54;6.63;;;2.80;;
6149;SDS011;3106;42.670;23.318;2023-02-01T08:34:21;6.23;;;3.20;;
6149;SDS011;3106;42.670;23.318;2023-02-01T08:36:52;3.70;;;2.87;;
6149;SDS011;3106;42.670;23.318;2023-02-01T08:39:29;6.23;;;3.50;;
6149;SDS011;3106;42.670;23.318;2023-02-01T08:41:56;4.60;;;3.07;;
6149;SDS011;3106;42.670;23.318;2023-02-01T08:44:40;7.83;;;2.87;;
6149;SDS011;3106;42.670;23.318;2023-02-01T08:47:07;6.60;;;3.00;;
6149;SDS011;3106;42.670;23.318;2023-02-01T08:49:40;9.40;;;3.27;;
6149;SDS011;3106;42.670;23.318;2023-02-01T08:52:09;6.37;;;3.53;;
6149;SDS011;3106;42.670;23.318;2023-02-01T08:54:43;9.17;;;3.20;;
6149;SDS011;3106;42.670;23.318;2023-02-01T08:57:10;5.10;;;2.93;;
6149;SDS011;3106;42.670;23.318;2023-02-01T08:59:38;7.97;;;3.40;;
6149;SDS011;3106;42.670;23.318;2023-02-01T09:02:14;15.53;;;3.40;;
6149;SDS011;3106;42.670;23.318;2023-02-01T09:04:42;8.00;;;4.00;;
6149;SDS011;3106;42.670;23.318;2023-02-01T09:07:09;7.43;;;3.20;;
6149;SDS011;3106;42.670;23.318;2023-02-01T09:09:39;11.80;;;3.50;;
6149;SDS011;3106;42.670;23.318;2023-02-01T09:12:06;4.93;;;2.70;;
6149;SDS011;3106;42.670;23.318;2023-02-01T09:14:33;4.77;;;2.83;;
6149;SDS011;3106;42.670;23.318;2023-02-01T09:17:03;12.43;;;3.17;;
6149;SDS011;3106;42.670;23.318;2023-02-01T09:19:34;9.87;;;3.53;;
6149;SDS011;3106;42.670;23.318;2023-02-01T09:22:06;5.23;;;3.00;;
6149;SDS011;3106;42.670;23.318;2023-02-01T09:24:33;5.53;;;2.20;;
6149;SDS011;3106;42.670;23.318;2023-02-01T09:27:04;2.77;;;2.30;;
6149;SDS011;3106;42.670;23.318;2023-02-01T09:29:35;4.20;;;2.57;;
6149;SDS011;3106;42.670;23.318;2023-02-01T09:32:03;7.97;;;3.10;;
6149;SDS011;3106;42.670;23.318;2023-02-01T09:34:31;6.77;;;3.27;;
6149;SDS011;3106;42.670;23.318;2023-02-01T09:36:58;5.07;;;2.93;;
6149;SDS011;3106;42.670;23.318;2023-02-01T09:39:27;5.77;;;2.43;;
6149;SDS011;3106;42.670;23.318;2023-02-01T09:42:08;7.27;;;2.97;;
6149;SDS011;3106;42.670;23.318;2023-02-01T09:44:57;4.03;;;2.70;;
6149;SDS011;3106;42.670;23.318;2023-02-01T09:47:34;6.60;;;3.00;;
6149;SDS011;3106;42.670;23.318;2023-02-01T09:50:05;5.63;;;2.80;;
6149;SDS011;3106;42.670;23.318;2023-02-01T09:52:43;6.00;;;2.80;;
6149;SDS011;3106;42.670;23.318;2023-02-01T09:55:15;7.33;;;3.47;;
6149;SDS011;3106;42.670;23.318;2023-02-01T09:57:56;6.30;;;2.13;;
6149;SDS011;3106;42.670;23.318;2023-02-01T10:00:28;5.60;;;2.90;;
6149;SDS011;3106;42.670;23.318;2023-02-01T10:03:00;4.40;;;2.60;;
6149;SDS011;3106;42.670;23.318;2023-02-01T10:05:38;3.90;;;2.30;;
6149;SDS011;3106;42.670;23.318;2023-02-01T10:08:26;7.87;;;3.50;;
6149;SDS011;3106;42.670;23.318;2023-02-01T10:11:06;8.70;;;3.07;;
6149;SDS011;3106;42.670;23.318;2023-02-01T10:14:01;4.80;;;2.47;;
6149;SDS011;3106;42.670;23.318;2023-02-01T10:16:55;5.30;;;2.57;;
6149;SDS011;3106;42.670;23.318;2023-02-01T10:19:30;4.80;;;2.70;;
6149;SDS011;3106;42.670;23.318;2023-02-01T10:22:06;8.20;;;3.20;;
6149;SDS011;3106;42.670;23.318;2023-02-01T10:24:40;9.70;;;2.87;;
6149;SDS011;3106;42.670;23.318;2023-02-01T10:27:14;4.33;;;2.40;;
6149;SDS011;3106;42.670;23.318;2023-02-01T10:32:56;6.60;;;2.67;;
6149;SDS011;3106;42.670;23.318;2023-02-01T10:35:31;5.93;;;2.40;;
6149;SDS011;3106;42.670;23.318;2023-02-01T10:38:07;7.33;;;2.97;;
6149;SDS011;3106;42.670;23.318;2023-02-01T10:40:43;3.67;;;2.03;;
6149;SDS011;3106;42.670;23.318;2023-02-01T10:43:11;3.93;;;2.40;;
6149;SDS011;3106;42.670;23.318;2023-02-01T10:45:46;4.50;;;2.60;;
6149;SDS011;3106;42.670;23.318;2023-02-01T10:48:24;4.30;;;2.23;;
6149;SDS011;3106;42.670;23.318;2023-02-01T10:50:55;10.97;;;3.17;;
6149;SDS011;3106;42.670;23.318;2023-02-01T10:53:41;7.90;;;2.73;;
6149;SDS011;3106;42.670;23.318;2023-02-01T10:56:27;3.13;;;2.17;;
6149;SDS011;3106;42.670;23.318;2023-02-01T10:59:04;6.10;;;3.03;;
6149;SDS011;3106;42.670;23.318;2023-02-01T11:04:25;5.97;;;2.37;;
6149;SDS011;3106;42.670;23.318;2023-02-01T11:07:05;7.07;;;2.53;;
6149;SDS011;3106;42.670;23.318;2023-02-01T11:09:34;5.13;;;2.57;;
6149;SDS011;3106;42.670;23.318;2023-02-01T11:15:23;4.73;;;1.90;;
6149;SDS011;3106;42.670;23.318;2023-02-01T11:17:56;4.20;;;2.53;;
6149;SDS011;3106;42.670;23.318;2023-02-01T11:20:41;4.70;;;2.20;;
6149;SDS011;3106;42.670;23.318;2023-02-01T11:23:12;3.23;;;2.33;;
6149;SDS011;3106;42.670;23.318;2023-02-01T11:25:47;3.17;;;2.03;;
6149;SDS011;3106;42.670;23.318;2023-02-01T11:28:16;6.97;;;2.80;;
6149;SDS011;3106;42.670;23.318;2023-02-01T11:30:44;4.40;;;2.03;;
6149;SDS011;3106;42.670;23.318;2023-02-01T11:33:15;5.57;;;2.23;;
6149;SDS011;3106;42.670;23.318;2023-02-01T11:35:45;21.10;;;2.70;;
6149;SDS011;3106;42.670;23.318;2023-02-01T11:38:19;11.60;;;2.77;;
6149;SDS011;3106;42.670;23.318;2023-02-01T11:40:48;6.73;;;2.20;;
6149;SDS011;3106;42.670;23.318;2023-02-01T11:43:17;6.53;;;2.10;;
6149;SDS011;3106;42.670;23.318;2023-02-01T11:45:53;3.10;;;2.00;;
6149;SDS011;3106;42.670;23.318;2023-02-01T11:48:23;3.83;;;2.20;;
6149;SDS011;3106;42.670;23.318;2023-02-01T11:50:54;2.00;;;1.60;;
6149;SDS011;3106;42.670;23.318;2023-02-01T11:53:49;2.53;;;1.90;;
6149;SDS011;3106;42.670;23.318;2023-02-01T11:56:30;1.97;;;1.80;;
6149;SDS011;3106;42.670;23.318;2023-02-01T11:59:09;5.00;;;2.20;;
6149;SDS011;3106;42.670;23.318;2023-02-01T12:01:52;3.90;;;2.00;;
6149;SDS011;3106;42.670;23.318;2023-02-01T12:08:17;3.83;;;1.97;;
6149;SDS011;3106;42.670;23.318;2023-02-01T12:10:55;5.00;;;2.43;;
6149;SDS011;3106;42.670;23.318;2023-02-01T12:13:51;4.90;;;2.23;;
6149;SDS011;3106;42.670;23.318;2023-02-01T12:16:29;3.07;;;2.13;;
6149;SDS011;3106;42.670;23.318;2023-02-01T12:19:11;2.40;;;1.80;;
6149;SDS011;3106;42.670;23.318;2023-02-01T12:22:03;2.70;;;2.03;;
6149;SDS011;3106;42.670;23.318;2023-02-01T12:24:47;7.40;;;2.43;;
6149;SDS011;3106;42.670;23.318;2023-02-01T12:27:46;2.60;;;1.70;;
6149;SDS011;3106;42.670;23.318;2023-02-01T12:30:37;3.43;;;2.17;;
6149;SDS011;3106;42.670;23.318;2023-02-01T12:33:20;4.20;;;2.13;;
6149;SDS011;3106;42.670;23.318;2023-02-01T12:36:08;3.53;;;1.90;;
6149;SDS011;3106;42.670;23.318;2023-02-01T12:38:46;3.20;;;2.17;;
6149;SDS011;3106;42.670;23.318;2023-02-01T12:41:26;6.10;;;2.03;;
6149;SDS011;3106;42.670;23.318;2023-02-01T12:44:11;2.47;;;1.90;;
6149;SDS011;3106;42.670;23.318;2023-02-01T12:46:43;3.10;;;1.70;;
6149;SDS011;3106;42.670;23.318;2023-02-01T12:49:17;2.50;;;1.63;;
6149;SDS011;3106;42.670;23.318;2023-02-01T12:51:55;2.13;;;1.83;;
6149;SDS011;3106;42.670;23.318;2023-02-01T12:54:30;5.33;;;2.40;;
6149;SDS011;3106;42.670;23.318;2023-02-01T12:57:06;3.90;;;2.20;;
6149;SDS011;3106;42.670;23.318;2023-02-01T12:59:42;2.70;;;1.93;;
6149;SDS011;3106;42.670;23.318;2023-02-01T13:02:15;5.53;;;2.03;;
6149;SDS011;3106;42.670;23.318;2023-02-01T13:04:57;4.13;;;2.03;;
6149;SDS011;3106;42.670;23.318;2023-02-01T13:07:30;5.20;;;1.60;;
6149;SDS011;3106;42.670;23.318;2023-02-01T13:10:11;3.93;;;1.80;;
6149;SDS011;3106;42.670;23.318;2023-02-01T13:12:43;3.33;;;1.90;;
6149;SDS011;3106;42.670;23.318;2023-02-01T13:15:17;3.87;;;2.40;;
6149;SDS011;3106;42.670;23.318;2023-02-01T13:17:47;3.33;;;1.87;;
6149;SDS011;3106;42.670;23.318;2023-02-01T13:37:23;5.30;;;2.30;;
6149;SDS011;3106;42.670;23.318;2023-02-01T13:40:00;4.17;;;2.20;;
6149;SDS011;3106;42.670;23.318;2023-02-01T13:42:42;4.40;;;2.00;;
6149;SDS011;3106;42.670;23.318;2023-02-01T13:45:14;2.87;;;2.00;;
6149;SDS011;3106;42.670;23.318;2023-02-01T13:47:45;3.07;;;2.10;;
6149;SDS011;3106;42.670;23.318;2023-02-01T13:50:19;3.40;;;2.10;;
6149;SDS011;3106;42.670;23.318;2023-02-01T13:52:51;6.60;;;2.20;;
6149;SDS011;3106;42.670;23.318;2023-02-01T13:55:31;3.00;;;1.90;;
6149;SDS011;3106;42.670;23.318;2023-02-01T14:00:47;6.83;;;1.60;;
6149;SDS011;3106;42.670;23.318;2023-02-01T14:03:21;2.50;;;1.57;;
6149;SDS011;3106;42.670;23.318;2023-02-01T14:06:16;4.83;;;2.13;;
6149;SDS011;3106;42.670;23.318;2023-02-01T14:09:15;5.37;;;2.20;;
6149;SDS011;3106;42.670;23.318;2023-02-01T14:11:46;3.60;;;1.93;;
6149;SDS011;3106;42.670;23.318;2023-02-01T14:23:21;2.97;;;2.00;;
6149;SDS011;3106;42.670;23.318;2023-02-01T14:28:56;3.83;;;2.23;;
6149;SDS011;3106;42.670;23.318;2023-02-01T14:31:30;3.00;;;2.13;;
6149;SDS011;3106;42.670;23.318;2023-02-01T14:34:05;3.93;;;2.60;;
6149;SDS011;3106;42.670;23.318;2023-02-01T14:36:40;3.03;;;2.10;;
6149;SDS011;3106;42.670;23.318;2023-02-01T14:39:22;4.00;;;2.60;;
6149;SDS011;3106;42.670;23.318;2023-02-01T14:41:53;6.93;;;2.00;;
6149;SDS011;3106;42.670;23.318;2023-02-01T14:44:27;2.20;;;2.00;;
6149;SDS011;3106;42.670;23.318;2023-02-01T14:47:09;3.00;;;2.33;;
6149;SDS011;3106;42.670;23.318;2023-02-01T14:50:03;3.97;;;2.03;;
6149;SDS011;3106;42.670;23.318;2023-02-01T14:52:38;5.73;;;2.60;;
6149;SDS011;3106;42.670;23.318;2023-02-01T14:55:11;6.70;;;2.97;;
6149;SDS011;3106;42.670;23.318;2023-02-01T14:57:43;4.03;;;2.40;;
6149;SDS011;3106;42.670;23.318;2023-02-01T15:00:18;4.13;;;2.70;;
6149;SDS011;3106;42.670;23.318;2023-02-01T15:02:48;6.50;;;3.57;;
6149;SDS011;3106;42.670;23.318;2023-02-01T15:05:22;4.10;;;2.90;;
6149;SDS011;3106;42.670;23.318;2023-02-01T15:07:56;7.97;;;3.20;;
6149;SDS011;3106;42.670;23.318;2023-02-01T15:10:32;3.63;;;2.47;;
6149;SDS011;3106;42.670;23.318;2023-02-01T15:13:12;3.90;;;2.83;;
6149;SDS011;3106;42.670;23.318;2023-02-01T15:15:59;7.07;;;2.50;;
6149;SDS011;3106;42.670;23.318;2023-02-01T15:18:30;4.63;;;3.27;;
6149;SDS011;3106;42.670;23.318;2023-02-01T15:20:57;4.70;;;3.10;;
6149;SDS011;3106;42.670;23.318;2023-02-01T15:23:27;5.13;;;2.80;;
6149;SDS011;3106;42.670;23.318;2023-02-01T15:25:56;3.67;;;2.30;;
6149;SDS011;3106;42.670;23.318;2023-02-01T15:28:24;4.03;;;2.60;;
6149;SDS011;3106;42.670;23.318;2023-02-01T15:30:53;5.50;;;3.20;;
6149;SDS011;3106;42.670;23.318;2023-02-01T15:33:21;10.37;;;5.00;;
6149;SDS011;3106;42.670;23.318;2023-02-01T15:35:49;6.27;;;2.60;;
6149;SDS011;3106;42.670;23.318;2023-02-01T15:38:30;4.80;;;3.17;;
6149;SDS011;3106;42.670;23.318;2023-02-01T15:41:04;5.03;;;3.10;;
6149;SDS011;3106;42.670;23.318;2023-02-01T15:43:36;5.17;;;2.57;;
6149;SDS011;3106;42.670;23.318;2023-02-01T15:46:09;4.30;;;2.50;;
6149;SDS011;3106;42.670;23.318;2023-02-01T15:48:42;4.03;;;2.60;;
6149;SDS011;3106;42.670;23.318;2023-02-01T15:51:12;4.63;;;3.00;;
6149;SDS011;3106;42.670;23.318;2023-02-01T15:53:43;2.63;;;2.03;;
6149;SDS011;3106;42.670;23.318;2023-02-01T15:56:14;4.73;;;2.50;;
6149;SDS011;3106;42.670;23.318;2023-02-01T15:58:42;2.63;;;2.00;;
6149;SDS011;3106;42.670;23.318;2023-02-01T16:01:15;5.00;;;2.53;;
6149;SDS011;3106;42.670;23.318;2023-02-01T16:03:42;5.40;;;2.50;;
6149;SDS011;3106;42.670;23.318;2023-02-01T16:06:26;4.40;;;2.40;;
6149;SDS011;3106;42.670;23.318;2023-02-01T16:08:54;10.17;;;2.93;;
6149;SDS011;3106;42.670;23.318;2023-02-01T16:11:28;10.07;;;3.30;;
6149;SDS011;3106;42.670;23.318;2023-02-01T16:13:56;6.17;;;2.70;;
6149;SDS011;3106;42.670;23.318;2023-02-01T16:16:27;6.10;;;3.20;;
6149;SDS011;3106;42.670;23.318;2023-02-01T16:18:55;8.10;;;3.40;;
6149;SDS011;3106;42.670;23.318;2023-02-01T16:21:22;10.67;;;2.90;;
6149;SDS011;3106;42.670;23.318;2023-02-01T16:23:49;8.30;;;4.23;;
6149;SDS011;3106;42.670;23.318;2023-02-01T16:26:17;9.50;;;2.70;;
6149;SDS011;3106;42.670;23.318;2023-02-01T16:28:45;6.63;;;3.10;;